Time;durP1;ratioP1;P1;durP2;ratioP2;P2;SDS_P1;SDS_P2;PMS_P1;PMS_P2;Temp;Humidity;BMP_temperature;BMP_pressure;BME280_temperature;BME280_humidity;BME280_pressure;Samples;Min_cycle;Max_cycle;Signal;HPM_P1;HPM_P2
2022/08/26 00:02:25;;;;;;;4.67;3.65;;;26.60;87.00;;;;;;7229838;80;26733;-59
2022/08/26 00:12:27;;;;;;;4.20;3.70;;;26.60;86.60;;;;;;7245109;80;26344;-59
2022/08/26 00:22:30;;;;;;;6.45;4.05;;;26.60;86.30;;;;;;7241799;80;26295;-58
2022/08/26 00:32:32;;;;;;;6.22;3.90;;;26.50;86.10;;;;;;7246389;80;26899;-59
2022/08/26 00:42:35;;;;;;;5.28;3.80;;;26.50;86.60;;;;;;7230755;80;26312;-60
2022/08/26 00:52:38;;;;;;;6.95;4.20;;;26.50;86.50;;;;;;7236541;80;26320;-59
2022/08/26 01:02:41;;;;;;;5.03;4.10;;;26.40;86.50;;;;;;7245242;80;26323;-58
2022/08/26 01:12:50;;;;;;;5.87;4.03;;;26.40;86.50;;;;;;7236902;80;26817;-58
2022/08/26 01:22:59;;;;;;;5.78;4.05;;;26.30;86.50;;;;;;7269474;80;26884;-60
2022/08/26 01:33:04;;;;;;;5.17;4.28;;;26.30;86.70;;;;;;7256181;80;26771;-59
2022/08/26 01:43:09;;;;;;;5.35;4.22;;;26.30;86.40;;;;;;7231184;80;26299;-60
2022/08/26 01:53:14;;;;;;;6.15;4.08;;;26.20;86.70;;;;;;7247602;80;26253;-59
2022/08/26 02:03:20;;;;;;;5.45;4.33;;;26.20;86.40;;;;;;7248542;80;26249;-58
2022/08/26 02:13:25;;;;;;;9.55;4.42;;;26.20;86.30;;;;;;7266970;80;26727;-58
2022/08/26 02:23:27;;;;;;;5.42;4.28;;;26.10;86.80;;;;;;7256991;80;26735;-59
2022/08/26 02:33:30;;;;;;;8.05;4.00;;;26.10;86.80;;;;;;7263815;80;26320;-57
2022/08/26 02:43:33;;;;;;;5.20;4.10;;;26.10;87.30;;;;;;7243167;80;26340;-58
2022/08/26 02:53:35;;;;;;;7.10;4.30;;;26.00;86.80;;;;;;7251059;80;26397;-58
2022/08/26 03:03:38;;;;;;;6.45;4.42;;;26.00;86.30;;;;;;7250308;80;26406;-58
2022/08/26 03:13:40;;;;;;;6.42;4.22;;;25.90;86.10;;;;;;7250960;80;26399;-58
2022/08/26 03:23:44;;;;;;;7.30;3.80;;;25.90;86.30;;;;;;7275987;80;26847;-58
2022/08/26 03:33:47;;;;;;;5.58;3.98;;;25.80;85.50;;;;;;7249266;80;26390;-58
2022/08/26 03:43:49;;;;;;;8.78;3.90;;;25.80;86.40;;;;;;7240182;80;26336;-58
2022/08/26 03:53:52;;;;;;;9.93;4.20;;;25.80;86.50;;;;;;7267644;80;26880;-55
2022/08/26 04:03:58;;;;;;;10.03;4.92;;;25.80;86.60;;;;;;7244796;80;26369;-54
2022/08/26 04:14:03;;;;;;;7.05;4.67;;;25.70;86.70;;;;;;7254278;80;26852;-55
2022/08/26 04:24:07;;;;;;;9.18;4.55;;;25.70;86.50;;;;;;7247301;80;26821;-57
2022/08/26 04:34:11;;;;;;;12.35;4.53;;;25.70;86.60;;;;;;7244817;80;26700;-56
2022/08/26 04:44:14;;;;;;;7.20;4.33;;;25.60;86.50;;;;;;7250247;80;26374;-53
2022/08/26 04:54:17;;;;;;;10.78;5.42;;;25.60;86.40;;;;;;7245084;80;26394;-58
2022/08/26 05:04:20;;;;;;;12.30;4.97;;;25.50;86.80;;;;;;7250043;80;26821;-55
2022/08/26 05:14:23;;;;;;;8.60;4.92;;;25.50;87.10;;;;;;7250561;80;26394;-54
2022/08/26 05:24:25;;;;;;;7.95;4.42;;;25.50;87.30;;;;;;7243954;80;26371;-58
2022/08/26 05:34:28;;;;;;;5.72;4.35;;;25.50;86.80;;;;;;7249838;80;26896;-59
2022/08/26 05:44:30;;;;;;;6.78;5.25;;;25.50;86.90;;;;;;7250612;80;26378;-57
2022/08/26 05:54:33;;;;;;;14.80;8.73;;;25.50;86.70;;;;;;7247769;80;26320;-57
2022/08/26 06:04:36;;;;;;;11.18;6.20;;;25.60;88.90;;;;;;7248965;80;26292;-54
2022/08/26 06:14:38;;;;;;;14.23;6.05;;;25.60;87.70;;;;;;7250808;80;26328;-57
2022/08/26 06:34:51;;;;;;;8.40;6.60;;;25.60;87.80;;;;;;7205981;80;26341;-57
2022/08/26 06:44:53;;;;;;;9.58;6.78;;;25.60;88.00;;;;;;7250235;80;26795;-62
2022/08/26 06:54:56;;;;;;;9.43;7.10;;;25.60;88.30;;;;;;7251473;80;26367;-59
2022/08/26 07:04:58;;;;;;;16.75;8.53;;;25.60;88.70;;;;;;7250451;80;26301;-58
2022/08/26 07:15:01;;;;;;;16.50;9.15;;;25.60;90.00;;;;;;7250228;80;26297;-56
2022/08/26 07:25:09;;;;;;;11.18;8.40;;;25.60;90.10;;;;;;7251509;80;26341;-57
2022/08/26 07:35:12;;;;;;;12.45;8.05;;;25.60;89.70;;;;;;7248736;80;26284;-57
2022/08/26 07:45:15;;;;;;;12.25;7.95;;;25.60;89.50;;;;;;7247761;80;26350;-57
2022/08/26 07:55:18;;;;;;;16.05;8.80;;;25.70;89.20;;;;;;7251209;80;26812;-57
2022/08/26 08:05:22;;;;;;;9.75;8.00;;;25.70;89.10;;;;;;7251184;80;26439;-57
2022/08/26 08:15:27;;;;;;;10.90;8.23;;;25.70;88.80;;;;;;7252759;80;26795;-58
2022/08/26 08:25:31;;;;;;;11.95;10.18;;;25.80;88.60;;;;;;7254707;80;26308;-57
2022/08/26 08:35:34;;;;;;;14.83;9.28;;;25.80;88.50;;;;;;7251089;80;26343;-56
2022/08/26 08:45:48;;;;;;;34.40;24.12;;;25.90;88.50;;;;;;7249831;80;26812;-57
2022/08/26 08:55:54;;;;;;;32.83;24.80;;;25.90;91.30;;;;;;7252486;80;26320;-57
2022/08/26 09:05:58;;;;;;;26.77;22.98;;;26.00;91.50;;;;;;7252158;80;26399;-58
2022/08/26 09:16:07;;;;;;;25.15;20.43;;;26.00;92.00;;;;;;7252287;80;26285;-57
2022/08/26 09:26:30;;;;;;;26.85;20.65;;;26.10;92.30;;;;;;7241175;80;26304;-58
2022/08/26 09:36:38;;;;;;;30.70;21.48;;;26.10;92.20;;;;;;7249550;80;26877;-58
2022/08/26 09:46:44;;;;;;;25.02;20.48;;;26.20;92.20;;;;;;7246253;80;26295;-58
2022/08/26 09:56:46;;;;;;;24.05;21.42;;;26.10;92.10;;;;;;7258702;80;26309;-58
2022/08/26 10:07:04;;;;;;;23.27;20.30;;;26.20;91.90;;;;;;7259555;80;26296;-58
2022/08/26 10:17:12;;;;;;;26.75;20.77;;;26.30;92.00;;;;;;7252642;80;26360;-58
2022/08/26 10:27:27;;;;;;;27.67;20.32;;;26.30;91.80;;;;;;7249865;80;26297;-58
2022/08/26 10:37:56;;;;;;;25.82;21.70;;;26.30;92.00;;;;;;7256314;80;26276;-58
2022/08/26 10:48:08;;;;;;;24.85;21.85;;;26.30;92.00;;;;;;7249263;80;26292;-57
2022/08/26 10:58:26;;;;;;;24.70;20.72;;;26.40;91.80;;;;;;7249846;80;26358;-56
2022/08/26 11:08:29;;;;;;;24.23;20.95;;;26.40;91.90;;;;;;7248907;80;26390;-58
2022/08/26 11:18:42;;;;;;;24.12;20.80;;;26.50;92.10;;;;;;7251829;80;26347;-58
2022/08/26 11:28:47;;;;;;;22.40;19.90;;;26.50;92.10;;;;;;7248922;80;27186;-55
2022/08/26 11:38:49;;;;;;;24.60;22.00;;;26.50;92.10;;;;;;7250687;80;26394;-58
2022/08/26 11:49:00;;;;;;;35.95;21.25;;;26.50;92.10;;;;;;7251388;80;26942;-59
2022/08/26 11:59:05;;;;;;;31.07;22.20;;;26.50;92.00;;;;;;7248368;80;26873;-59
2022/08/26 12:09:11;;;;;;;24.07;18.60;;;26.60;92.20;;;;;;7248599;80;26272;-59
2022/08/26 12:19:28;;;;;;;21.73;19.42;;;26.60;92.10;;;;;;7257199;80;26367;-59
2022/08/26 13:25:21;;;;;;;22.52;20.10;;;26.70;93.30;;;;;;7784872;73;28170;-60
2022/08/26 13:35:23;;;;;;;24.07;19.05;;;26.70;93.10;;;;;;7625198;76;26320;-60
2022/08/26 13:45:26;;;;;;;24.18;20.10;;;26.80;93.10;;;;;;7650274;76;26332;-58
2022/08/26 13:55:29;;;;;;;32.28;19.57;;;26.80;93.30;;;;;;7646859;76;26331;-57
2022/08/26 14:05:32;;;;;;;22.15;18.82;;;26.90;93.10;;;;;;7622546;76;26275;-56
2022/08/26 14:15:36;;;;;;;25.43;18.85;;;26.90;92.80;;;;;;7677774;76;26343;-56
2022/08/26 14:25:39;;;;;;;23.05;18.92;;;26.90;92.40;;;;;;7524019;78;26248;-55
2022/08/26 14:35:42;;;;;;;22.90;17.30;;;26.90;92.10;;;;;;7528324;78;26251;-54
2022/08/26 14:45:44;;;;;;;24.92;16.00;;;26.90;92.00;;;;;;7524103;78;26855;-57
2022/08/26 14:55:47;;;;;;;17.48;13.03;;;26.90;92.00;;;;;;7531047;78;26373;-57
2022/08/26 15:05:49;;;;;;;24.98;15.43;;;26.90;92.50;;;;;;7532625;78;26729;-57
2022/08/26 15:15:52;;;;;;;22.67;12.65;;;26.90;92.20;;;;;;7527925;78;26298;-55
2022/08/26 15:25:54;;;;;;;17.70;12.10;;;26.90;92.20;;;;;;7643767;76;26259;-57
2022/08/26 15:36:01;;;;;;;14.28;11.30;;;26.90;92.10;;;;;;7670911;76;26285;-57
2022/08/26 15:46:03;;;;;;;16.77;12.33;;;26.90;92.10;;;;;;7667115;76;26803;-58
2022/08/26 15:56:06;;;;;;;14.10;11.43;;;26.90;91.90;;;;;;7647923;76;26577;-57
2022/08/26 16:06:10;;;;;;;13.85;12.40;;;26.90;91.80;;;;;;7627619;76;26345;-57
2022/08/26 16:16:13;;;;;;;16.70;11.55;;;26.90;91.80;;;;;;7648591;76;26265;-58
2022/08/26 16:26:19;;;;;;;15.00;11.60;;;26.90;91.80;;;;;;7533236;77;26340;-58
2022/08/26 16:36:21;;;;;;;13.43;10.53;;;26.80;91.60;;;;;;7425701;78;26370;-57
2022/08/26 16:46:25;;;;;;;12.85;10.48;;;26.90;91.70;;;;;;7481191;79;26337;-57
2022/08/26 16:56:29;;;;;;;15.05;11.40;;;26.80;91.70;;;;;;7455044;79;26332;-57
2022/08/26 17:06:32;;;;;;;11.45;9.70;;;26.80;91.60;;;;;;7459446;79;27043;-57
2022/08/26 17:16:35;;;;;;;13.13;10.38;;;26.80;91.70;;;;;;7441999;79;26270;-55
2022/08/26 17:26:37;;;;;;;10.93;9.75;;;26.80;91.50;;;;;;7417480;79;26831;-56
2022/08/26 17:36:40;;;;;;;13.03;9.65;;;26.70;91.60;;;;;;7433692;79;26279;-56
2022/08/26 17:46:42;;;;;;;14.63;9.75;;;26.70;91.50;;;;;;7434049;79;26803;-57
2022/08/26 17:56:45;;;;;;;13.05;10.23;;;26.70;91.60;;;;;;7423622;79;26321;-58
2022/08/26 18:06:47;;;;;;;10.38;8.95;;;26.70;91.60;;;;;;7433869;78;26263;-56
2022/08/26 18:16:50;;;;;;;10.40;8.78;;;26.70;91.40;;;;;;7439209;79;26282;-57
2022/08/26 18:26:52;;;;;;;12.00;9.28;;;26.60;91.40;;;;;;7410606;79;26760;-57
2022/08/26 18:36:55;;;;;;;11.22;9.00;;;26.60;91.30;;;;;;7403359;78;26262;-56
2022/08/26 18:46:57;;;;;;;12.73;9.30;;;26.60;91.40;;;;;;7426300;78;26343;-56
2022/08/26 18:57:02;;;;;;;11.57;9.60;;;26.50;91.50;;;;;;7408814;79;26766;-57
2022/08/26 19:07:05;;;;;;;11.68;8.33;;;26.50;91.40;;;;;;7432784;78;26287;-57
2022/08/26 19:17:08;;;;;;;13.55;8.68;;;26.50;91.50;;;;;;7479765;76;26385;-57
2022/08/26 19:27:11;;;;;;;16.67;9.10;;;26.50;91.60;;;;;;7522764;78;26320;-56
2022/08/26 19:37:13;;;;;;;15.83;9.55;;;26.40;91.70;;;;;;7411939;78;26343;-55
2022/08/26 19:47:16;;;;;;;11.57;7.55;;;26.40;91.70;;;;;;7540205;77;26318;-58
2022/08/26 19:57:18;;;;;;;14.30;8.45;;;26.40;91.80;;;;;;7498701;77;27173;-58
2022/08/26 20:07:21;;;;;;;10.38;7.70;;;26.40;91.70;;;;;;7484639;77;26341;-58
2022/08/26 20:17:23;;;;;;;9.13;6.78;;;26.30;91.60;;;;;;7486648;77;26351;-59
2022/08/26 20:27:32;;;;;;;13.65;7.97;;;26.30;91.60;;;;;;7491332;77;26810;-56
2022/08/26 20:37:33;;;;;;;9.98;7.05;;;26.30;91.70;;;;;;7491237;77;26329;-56
2022/08/26 20:47:36;;;;;;;12.53;7.45;;;26.30;91.90;;;;;;7494477;77;26388;-56
2022/08/26 20:57:41;;;;;;;13.22;7.35;;;26.30;91.90;;;;;;7491460;77;26794;-58
2022/08/26 21:07:43;;;;;;;7.90;6.08;;;26.20;91.90;;;;;;7495051;77;26849;-58
2022/08/26 21:17:46;;;;;;;9.18;6.22;;;26.20;91.80;;;;;;7492499;77;26384;-54
2022/08/26 21:27:48;;;;;;;10.78;6.45;;;26.20;91.80;;;;;;7493771;77;26321;-56
2022/08/26 21:37:51;;;;;;;9.28;6.20;;;26.10;91.90;;;;;;7498351;77;26380;-58
2022/08/26 21:47:53;;;;;;;10.93;6.60;;;26.10;91.90;;;;;;7504259;77;26301;-58
2022/08/26 21:57:56;;;;;;;7.60;5.47;;;26.10;91.80;;;;;;7508711;77;26865;-60
2022/08/26 22:07:58;;;;;;;12.65;6.37;;;26.00;91.90;;;;;;7518238;77;26311;-57
2022/08/26 22:18:07;;;;;;;16.27;6.28;;;26.00;91.80;;;;;;7505968;77;26391;-57
2022/08/26 22:28:09;;;;;;;10.00;5.87;;;26.00;91.80;;;;;;7509295;77;26278;-58
2022/08/26 22:38:12;;;;;;;8.73;5.72;;;26.00;91.90;;;;;;7509556;77;26258;-56
2022/08/26 22:48:17;;;;;;;8.03;6.15;;;26.00;91.90;;;;;;7523798;77;26327;-56
2022/08/26 22:58:21;;;;;;;10.03;5.60;;;25.90;91.80;;;;;;7529224;77;26345;-57
2022/08/26 23:08:24;;;;;;;6.90;5.40;;;25.90;91.80;;;;;;7544705;77;26367;-56
2022/08/26 23:18:27;;;;;;;9.65;5.65;;;25.90;91.90;;;;;;7539025;77;26316;-56
2022/08/26 23:28:30;;;;;;;6.70;4.75;;;25.90;91.90;;;;;;7532534;77;26344;-56
2022/08/26 23:38:33;;;;;;;6.17;4.55;;;25.80;91.90;;;;;;7530769;77;26254;-60
2022/08/26 23:48:36;;;;;;;6.03;4.83;;;25.80;91.80;;;;;;7541249;77;26673;-57
2022/08/26 23:58:38;;;;;;;6.65;4.67;;;25.80;91.80;;;;;;7536705;77;26292;-58
